Time,TemperatureF,DewpointF,PressureIn,WindDirection,WindDirectionDegrees,WindSpeedMPH,WindSpeedGustMPH,Humidity,HourlyPrecipIn,Conditions,Clouds,dailyrainin,SoftwareType,DateUTC
2013-03-16 00:00:00,63.3,38.6,29.79,WSW,248,4.0,4.0,40,0.00,,CLR,0.00,VWS V14.01,2013-03-16 04:00:00,
2013-03-16 00:11:00,58.8,35.2,29.85,SSW,202,6.5,6.5,41,0.00,,CLR,0.00,VWS V14.01,2013-03-16 04:11:00,
2013-03-16 00:16:00,58.6,35.0,29.85,SSW,202,6.5,6.5,41,0.00,,CLR,0.00,VWS V14.01,2013-03-16 04:16:00,
2013-03-16 00:21:00,58.5,34.9,29.82,SW,225,6.0,6.0,41,0.00,,CLR,0.00,VWS V14.01,2013-03-16 04:21:00,
2013-03-16 00:26:00,58.5,34.9,29.82,SW,225,8.5,8.5,41,0.00,,CLR,0.00,VWS V14.01,2013-03-16 04:26:00,
2013-03-16 00:31:00,58.1,34.5,29.82,WSW,248,8.1,8.1,41,0.00,,CLR,0.00,VWS V14.01,2013-03-16 04:31:00,
2013-03-16 00:36:00,58.5,34.9,29.82,WSW,248,9.8,9.8,41,0.00,,CLR,0.00,VWS V14.01,2013-03-16 04:36:00,
2013-03-16 00:41:00,58.5,34.9,29.82,SW,225,6.3,6.3,41,0.00,,CLR,0.00,VWS V14.01,2013-03-16 04:41:00,
2013-03-16 00:47:00,58.5,34.9,29.82,SSW,202,7.4,7.4,41,0.00,,CLR,0.00,VWS V14.01,2013-03-16 04:47:00,
2013-03-16 00:52:00,58.3,34.7,29.82,SSW,202,4.0,4.0,41,0.00,,CLR,0.00,VWS V14.01,2013-03-16 04:52:00,
2013-03-16 00:57:00,58.3,34.7,29.82,SSW,202,4.9,4.9,41,0.00,,CLR,0.00,VWS V14.01,2013-03-16 04:57:00,
2013-03-16 01:02:00,58.5,34.9,29.82,SW,225,6.9,6.9,41,0.00,,CLR,0.00,VWS V14.01,2013-03-16 05:02:00,
2013-03-16 01:07:00,58.1,34.5,29.82,WSW,248,7.2,7.2,41,0.00,,CLR,0.00,VWS V14.01,2013-03-16 05:07:00,
2013-03-16 01:12:00,58.3,34.7,29.82,WSW,248,5.6,5.6,41,0.00,,CLR,0.00,VWS V14.01,2013-03-16 05:12:00,
2013-03-16 01:17:00,58.6,35.0,29.82,WSW,248,6.5,6.5,41,0.00,,CLR,0.00,VWS V14.01,2013-03-16 05:17:00,
2013-03-16 01:22:00,58.8,35.2,29.82,SW,225,6.3,6.3,41,0.00,,CLR,0.00,VWS V14.01,2013-03-16 05:22:00,
2013-03-16 01:27:00,58.5,34.9,29.82,WSW,248,9.4,9.4,41,0.00,,CLR,0.00,VWS V14.01,2013-03-16 05:27:00,
2013-03-16 01:32:00,58.3,34.7,29.82,WSW,248,7.2,7.2,41,0.00,,CLR,0.00,VWS V14.01,2013-03-16 05:32:00,
2013-03-16 01:37:00,58.3,34.7,29.82,WSW,248,7.8,7.8,41,0.00,,SCT090,0.00,VWS V14.01,2013-03-16 05:37:00,
2013-03-16 01:42:00,58.3,34.7,29.82,SW,225,8.7,8.7,41,0.00,,SCT090,0.00,VWS V14.01,2013-03-16 05:42:00,
2013-03-16 01:47:00,58.3,34.7,29.82,WSW,248,7.4,7.4,41,0.00,,SCT090,0.00,VWS V14.01,2013-03-16 05:47:00,
2013-03-16 01:52:00,58.1,34.5,29.82,SW,225,8.5,8.5,41,0.00,,SCT090,0.00,VWS V14.01,2013-03-16 05:52:00,
2013-03-16 01:57:00,57.9,34.4,29.82,SW,225,6.3,6.3,41,0.00,,SCT090,0.00,VWS V14.01,2013-03-16 05:57:00,
2013-03-16 02:02:00,57.6,34.1,29.82,SW,225,5.6,5.6,41,0.00,,SCT090,0.00,VWS V14.01,2013-03-16 06:02:00,
2013-03-16 02:07:00,57.9,34.4,29.79,SW,225,9.8,9.8,41,0.00,,SCT090,0.00,VWS V14.01,2013-03-16 06:07:00,
2013-03-16 02:12:00,57.7,34.2,29.79,SW,225,3.6,3.6,41,0.00,,SCT090,0.00,VWS V14.01,2013-03-16 06:12:00,
2013-03-16 02:17:00,57.7,34.2,29.79,SSW,202,8.1,8.1,41,0.00,,SCT090,0.00,VWS V14.01,2013-03-16 06:17:00,
2013-03-16 02:23:00,57.9,34.4,29.82,SW,225,6.3,6.3,41,0.00,,SCT090,0.00,VWS V14.01,2013-03-16 06:23:00,
2013-03-16 02:28:00,57.9,34.4,29.82,SW,225,7.4,7.4,41,0.00,,SCT090,0.00,VWS V14.01,2013-03-16 06:28:00,
2013-03-16 02:33:00,57.6,34.1,29.82,WSW,248,9.8,9.8,41,0.00,,SCT090,0.00,VWS V14.01,2013-03-16 06:33:00,
2013-03-16 02:38:00,57.6,34.1,29.79,SW,225,8.7,8.7,41,0.00,,CLR,0.00,VWS V14.01,2013-03-16 06:38:00,
2013-03-16 02:43:00,57.7,34.2,29.79,WSW,248,6.9,6.9,41,0.00,,CLR,0.00,VWS V14.01,2013-03-16 06:43:00,
2013-03-16 02:48:00,57.4,33.9,29.79,WSW,248,5.4,5.4,41,0.00,,CLR,0.00,VWS V14.01,2013-03-16 06:48:00,
2013-03-16 02:53:00,57.6,34.1,29.79,WSW,248,5.4,5.4,41,0.00,,CLR,0.00,VWS V14.01,2013-03-16 06:53:00,
2013-03-16 02:58:00,57.2,33.7,29.79,SW,225,6.0,6.0,41,0.00,,CLR,0.00,VWS V14.01,2013-03-16 06:58:00,
2013-03-16 03:03:00,57.6,34.1,29.79,SW,225,7.8,7.8,41,0.00,,CLR,0.00,VWS V14.01,2013-03-16 07:03:00,
2013-03-16 03:08:00,57.6,34.1,29.79,WSW,248,6.3,6.3,41,0.00,,CLR,0.00,VWS V14.01,2013-03-16 07:08:00,
2013-03-16 03:13:00,58.3,34.7,29.79,WSW,248,7.8,7.8,41,0.00,,CLR,0.00,VWS V14.01,2013-03-16 07:13:00,
2013-03-16 03:18:00,57.6,34.1,29.79,SW,225,7.4,7.4,41,0.00,,CLR,0.00,VWS V14.01,2013-03-16 07:18:00,
2013-03-16 03:23:00,58.1,34.5,29.79,WSW,248,5.6,5.6,41,0.00,,CLR,0.00,VWS V14.01,2013-03-16 07:23:00,
2013-03-16 03:28:00,58.1,34.5,29.79,SSW,202,5.4,5.4,41,0.00,,CLR,0.00,VWS V14.01,2013-03-16 07:28:00,
2013-03-16 03:33:00,58.1,34.5,29.79,WSW,248,5.6,5.6,41,0.00,,CLR,0.00,VWS V14.01,2013-03-16 07:33:00,
2013-03-16 03:38:00,57.9,34.4,29.79,SW,225,7.6,7.6,41,0.00,,CLR,0.00,VWS V14.01,2013-03-16 07:38:00,
2013-03-16 03:43:00,58.3,34.7,29.79,WSW,248,9.8,9.8,41,0.00,,CLR,0.00,VWS V14.01,2013-03-16 07:43:00,
2013-03-16 03:48:00,58.5,34.9,29.79,WSW,248,9.8,9.8,41,0.00,,CLR,0.00,VWS V14.01,2013-03-16 07:48:00,
2013-03-16 03:53:00,58.5,34.9,29.79,SW,225,9.4,9.4,41,0.00,,CLR,0.00,VWS V14.01,2013-03-16 07:53:00,
2013-03-16 03:59:00,58.6,35.0,29.79,WSW,248,5.8,5.8,41,0.00,,CLR,0.00,VWS V14.01,2013-03-16 07:59:00,
2013-03-16 04:04:00,58.6,35.0,29.79,WSW,248,9.8,9.8,41,0.00,,CLR,0.00,VWS V14.01,2013-03-16 08:04:00,
2013-03-16 04:09:00,59.2,35.5,29.79,WSW,248,10.7,10.7,41,0.00,,CLR,0.00,VWS V14.01,2013-03-16 08:09:00,
2013-03-16 04:14:00,58.6,35.0,29.79,SW,225,8.5,8.5,41,0.00,,CLR,0.00,VWS V14.01,2013-03-16 08:14:00,
2013-03-16 04:19:00,58.5,34.9,29.79,SW,225,8.7,8.7,41,0.00,,CLR,0.00,VWS V14.01,2013-03-16 08:19:00,
2013-03-16 04:24:00,57.9,34.4,29.79,WSW,248,6.0,6.0,41,0.00,,CLR,0.00,VWS V14.01,2013-03-16 08:24:00,
2013-03-16 04:29:00,58.5,34.9,29.79,West,270,7.6,7.6,41,0.00,,CLR,0.00,VWS V14.01,2013-03-16 08:29:00,
2013-03-16 04:34:00,58.5,34.9,29.79,WSW,248,6.0,6.0,41,0.00,,CLR,0.00,VWS V14.01,2013-03-16 08:34:00,
2013-03-16 04:39:00,58.6,35.0,29.79,West,270,5.8,5.8,41,0.00,,CLR,0.00,VWS V14.01,2013-03-16 08:39:00,
2013-03-16 04:44:00,58.5,34.9,29.79,WSW,248,6.5,6.5,41,0.00,,CLR,0.00,VWS V14.01,2013-03-16 08:44:00,
2013-03-16 04:49:00,58.1,34.5,29.79,West,270,5.6,5.6,41,0.00,,CLR,0.00,VWS V14.01,2013-03-16 08:49:00,
2013-03-16 04:54:00,58.1,34.5,29.79,WSW,248,5.4,5.4,41,0.00,,CLR,0.00,VWS V14.01,2013-03-16 08:54:00,
2013-03-16 04:59:00,58.3,34.7,29.79,West,270,8.1,8.1,41,0.00,,CLR,0.00,VWS V14.01,2013-03-16 08:59:00,
2013-03-16 05:04:00,57.9,34.4,29.82,WNW,292,7.8,7.8,41,0.00,,CLR,0.00,VWS V14.01,2013-03-16 09:04:00,
2013-03-16 05:09:00,58.6,35.0,29.82,SW,225,10.3,10.3,41,0.00,,CLR,0.00,VWS V14.01,2013-03-16 09:09:00,
2013-03-16 05:14:00,58.3,34.7,29.82,WSW,248,7.8,7.8,41,0.00,,CLR,0.00,VWS V14.01,2013-03-16 09:14:00,
2013-03-16 05:20:00,58.1,34.5,29.79,SW,225,6.9,6.9,41,0.00,,CLR,0.00,VWS V14.01,2013-03-16 09:20:00,
2013-03-16 05:25:00,57.6,34.1,29.79,West,270,3.6,3.6,41,0.00,,CLR,0.00,VWS V14.01,2013-03-16 09:25:00,
2013-03-16 05:30:00,57.9,34.4,29.79,West,270,3.6,3.6,41,0.00,,CLR,0.00,VWS V14.01,2013-03-16 09:30:00,
2013-03-16 05:35:00,58.1,34.5,29.79,WSW,248,8.5,8.5,41,0.00,,CLR,0.00,VWS V14.01,2013-03-16 09:35:00,
2013-03-16 05:40:00,57.7,34.2,29.79,WSW,248,6.3,6.3,41,0.00,,CLR,0.00,VWS V14.01,2013-03-16 09:40:00,
2013-03-16 05:45:00,58.1,34.5,29.79,SW,225,9.8,9.8,41,0.00,,CLR,0.00,VWS V14.01,2013-03-16 09:45:00,
2013-03-16 05:50:00,57.6,34.1,29.76,WSW,248,7.4,7.4,41,0.00,,CLR,0.00,VWS V14.01,2013-03-16 09:50:00,
2013-03-16 05:55:00,57.9,34.4,29.76,SW,225,9.0,9.0,41,0.00,,CLR,0.00,VWS V14.01,2013-03-16 09:55:00,
2013-03-16 06:00:00,57.6,34.1,29.76,SW,225,8.5,8.5,41,0.00,,CLR,0.00,VWS V14.01,2013-03-16 10:00:00,
2013-03-16 06:05:00,57.4,33.9,29.79,WSW,248,5.8,5.8,41,0.00,,CLR,0.00,VWS V14.01,2013-03-16 10:05:00,
2013-03-16 06:10:00,57.6,34.1,29.79,WSW,248,4.0,4.0,41,0.00,,CLR,0.00,VWS V14.01,2013-03-16 10:10:00,
2013-03-16 06:15:00,57.6,34.1,29.79,WSW,248,7.8,7.8,41,0.00,,CLR,0.00,VWS V14.01,2013-03-16 10:15:00,
2013-03-16 06:20:00,57.6,34.1,29.79,SW,225,6.3,6.3,41,0.00,,CLR,0.00,VWS V14.01,2013-03-16 10:20:00,
2013-03-16 06:25:00,57.6,34.1,29.79,WSW,248,7.8,7.8,41,0.00,,CLR,0.00,VWS V14.01,2013-03-16 10:25:00,
2013-03-16 06:30:00,57.7,34.2,29.79,SW,225,9.8,9.8,41,0.00,,CLR,0.00,VWS V14.01,2013-03-16 10:30:00,
2013-03-16 06:35:00,57.9,34.4,29.79,West,270,6.3,6.3,41,0.00,,CLR,0.00,VWS V14.01,2013-03-16 10:35:00,
2013-03-16 06:40:00,57.6,34.1,29.79,WNW,292,6.5,6.5,41,0.00,,CLR,0.00,VWS V14.01,2013-03-16 10:40:00,
2013-03-16 06:45:00,57.7,34.2,29.79,WSW,248,11.9,11.9,41,0.00,,CLR,0.00,VWS V14.01,2013-03-16 10:45:00,
2013-03-16 06:50:00,57.9,34.4,29.79,WSW,248,7.8,7.8,41,0.00,,CLR,0.00,VWS V14.01,2013-03-16 10:50:00,
2013-03-16 06:55:00,57.7,34.2,29.79,SW,225,5.8,5.8,41,0.00,,CLR,0.00,VWS V14.01,2013-03-16 10:55:00,
2013-03-16 07:00:00,57.6,34.1,29.79,WSW,248,5.6,5.6,41,0.00,,CLR,0.00,VWS V14.01,2013-03-16 11:00:00,
2013-03-16 07:05:00,57.9,34.4,29.79,SW,225,10.5,10.5,41,0.00,,CLR,0.00,VWS V14.01,2013-03-16 11:05:00,
2013-03-16 07:11:00,57.7,34.2,29.79,WSW,248,9.8,9.8,41,0.00,,CLR,0.00,VWS V14.01,2013-03-16 11:11:00,
2013-03-16 07:16:00,57.7,34.2,29.79,WSW,248,7.6,7.6,41,0.00,,CLR,0.00,VWS V14.01,2013-03-16 11:16:00,
2013-03-16 07:21:00,57.7,34.2,29.79,WSW,248,11.2,11.2,41,0.00,,CLR,0.00,VWS V14.01,2013-03-16 11:21:00,
2013-03-16 07:26:00,57.6,34.1,29.79,WSW,248,6.0,6.0,41,0.00,,CLR,0.00,VWS V14.01,2013-03-16 11:26:00,
2013-03-16 07:31:00,57.9,34.4,29.79,WSW,248,7.4,7.4,41,0.00,,CLR,0.00,VWS V14.01,2013-03-16 11:31:00,
2013-03-16 07:36:00,57.7,34.2,29.82,SW,225,4.0,4.0,41,0.00,,CLR,0.00,VWS V14.01,2013-03-16 11:36:00,
2013-03-16 07:41:00,57.6,34.1,29.82,WSW,248,4.3,4.3,41,0.00,,SCT120,0.00,VWS V14.01,2013-03-16 11:41:00,
2013-03-16 07:46:00,57.6,34.1,29.82,WSW,248,5.4,5.4,41,0.00,,SCT120,0.00,VWS V14.01,2013-03-16 11:46:00,
2013-03-16 07:51:00,57.6,34.1,29.79,WSW,248,7.8,7.8,41,0.00,,SCT120,0.00,VWS V14.01,2013-03-16 11:51:00,
2013-03-16 07:56:00,57.6,34.1,29.79,WSW,248,6.0,6.0,41,0.00,,SCT120,0.00,VWS V14.01,2013-03-16 11:56:00,
2013-03-16 08:01:00,57.4,33.9,29.79,WSW,248,3.6,3.6,41,0.00,,SCT120,0.00,VWS V14.01,2013-03-16 12:01:00,
2013-03-16 08:06:00,57.6,34.1,29.82,WNW,292,7.8,7.8,41,0.00,,SCT120,0.00,VWS V14.01,2013-03-16 12:06:00,
2013-03-16 08:11:00,57.9,34.4,29.82,SSW,202,8.7,8.7,41,0.00,,SCT120,0.00,VWS V14.01,2013-03-16 12:11:00,
2013-03-16 08:16:00,57.9,34.4,29.82,WSW,248,6.3,6.3,41,0.00,,SCT120,0.00,VWS V14.01,2013-03-16 12:16:00,
2013-03-16 08:22:00,57.6,34.1,29.82,WSW,248,6.0,6.0,41,0.00,,SCT120,0.00,VWS V14.01,2013-03-16 12:22:00,
2013-03-16 08:27:00,57.7,34.2,29.82,SSW,202,6.3,6.3,41,0.00,,SCT120,0.00,VWS V14.01,2013-03-16 12:27:00,
2013-03-16 08:32:00,57.4,33.9,29.82,WSW,248,6.0,6.0,41,0.00,,SCT120,0.00,VWS V14.01,2013-03-16 12:32:00,
2013-03-16 08:37:00,57.6,34.1,29.79,WSW,248,6.3,6.3,41,0.00,,SCT120,0.00,VWS V14.01,2013-03-16 12:37:00,
2013-03-16 08:42:00,57.7,34.2,29.79,WSW,248,7.6,7.6,41,0.00,,SCT120,0.00,VWS V14.01,2013-03-16 12:42:00,
2013-03-16 08:47:00,57.9,34.4,29.79,SW,225,7.6,7.6,41,0.00,,SCT120,0.00,VWS V14.01,2013-03-16 12:47:00,
2013-03-16 08:52:00,58.5,34.9,29.82,WSW,248,10.7,10.7,41,0.00,,SCT120,0.00,VWS V14.01,2013-03-16 12:52:00,
2013-03-16 08:57:00,58.8,35.2,29.82,WSW,248,8.7,8.7,41,0.00,,SCT120,0.00,VWS V14.01,2013-03-16 12:57:00,
2013-03-16 09:02:00,59.0,35.3,29.82,WSW,248,7.8,7.8,41,0.00,,SCT120,0.00,VWS V14.01,2013-03-16 13:02:00,
2013-03-16 09:07:00,59.4,35.7,29.82,SW,225,10.7,10.7,41,0.00,,SCT120,0.00,VWS V14.01,2013-03-16 13:07:00,
2013-03-16 09:12:00,59.5,35.8,29.82,SW,225,5.8,5.8,41,0.00,,SCT120,0.00,VWS V14.01,2013-03-16 13:12:00,
2013-03-16 09:17:00,59.9,36.2,29.82,SSW,202,5.6,5.6,41,0.00,,SCT120,0.00,VWS V14.01,2013-03-16 13:17:00,
2013-03-16 09:22:00,60.1,36.3,29.82,West,270,12.1,12.1,41,0.00,,SCT120,0.00,VWS V14.01,2013-03-16 13:22:00,
2013-03-16 09:27:00,60.3,36.5,29.82,WSW,248,10.1,10.1,41,0.00,,SCT120,0.00,VWS V14.01,2013-03-16 13:27:00,
2013-03-16 09:32:00,60.6,36.8,29.82,West,270,10.3,10.3,41,0.00,,SCT120,0.00,VWS V14.01,2013-03-16 13:32:00,
2013-03-16 09:37:00,60.4,36.7,29.82,WNW,292,11.0,11.0,41,0.00,,FEW120,0.00,VWS V14.01,2013-03-16 13:37:00,
2013-03-16 09:42:00,60.8,36.3,29.82,West,270,13.2,13.2,40,0.00,,FEW120,0.00,VWS V14.01,2013-03-16 13:42:00,
2013-03-16 09:47:00,61.7,37.2,29.82,WSW,248,6.0,6.0,40,0.00,,FEW120,0.00,VWS V14.01,2013-03-16 13:47:00,
2013-03-16 09:53:00,61.7,37.2,29.79,WSW,248,12.1,12.1,40,0.00,,FEW120,0.00,VWS V14.01,2013-03-16 13:53:00,
2013-03-16 09:58:00,62.1,37.5,29.79,WSW,248,8.5,8.5,40,0.00,,FEW120,0.00,VWS V14.01,2013-03-16 13:58:00,
2013-03-16 10:03:00,62.6,38.0,29.79,West,270,8.5,8.5,40,0.00,,FEW120,0.00,VWS V14.01,2013-03-16 14:03:00,
2013-03-16 10:08:00,63.0,38.3,29.76,West,270,10.3,10.3,40,0.00,,FEW120,0.00,VWS V14.01,2013-03-16 14:08:00,
2013-03-16 10:13:00,63.7,38.9,29.76,SW,225,12.1,12.1,40,0.00,,FEW120,0.00,VWS V14.01,2013-03-16 14:13:00,
2013-03-16 10:18:00,63.5,38.8,29.76,SW,225,7.6,7.6,40,0.00,,FEW120,0.00,VWS V14.01,2013-03-16 14:18:00,
2013-03-16 10:23:00,64.2,39.4,29.79,West,270,8.1,8.1,40,0.00,,FEW120,0.00,VWS V14.01,2013-03-16 14:23:00,
2013-03-16 10:28:00,63.7,38.9,29.79,WSW,248,10.5,10.5,40,0.00,,FEW120,0.00,VWS V14.01,2013-03-16 14:28:00,
2013-03-16 10:33:00,64.6,39.1,29.79,WSW,248,5.8,5.8,39,0.00,,FEW120,0.00,VWS V14.01,2013-03-16 14:33:00,
2013-03-16 10:38:00,65.1,39.6,29.76,SSW,202,8.5,8.5,39,0.00,,CLR,0.00,VWS V14.01,2013-03-16 14:38:00,
2013-03-16 10:43:00,64.6,39.1,29.76,WSW,248,12.3,12.3,39,0.00,,CLR,0.00,VWS V14.01,2013-03-16 14:43:00,
2013-03-16 10:49:00,65.3,39.7,29.76,SSW,202,7.6,7.6,39,0.00,,CLR,0.00,VWS V14.01,2013-03-16 14:49:00,
2013-03-16 10:54:00,65.5,39.9,29.79,WSW,248,8.7,8.7,39,0.00,,CLR,0.00,VWS V14.01,2013-03-16 14:54:00,
2013-03-16 10:59:00,66.2,40.5,29.79,WSW,248,16.6,16.6,39,0.00,,CLR,0.00,VWS V14.01,2013-03-16 14:59:00,
2013-03-16 11:04:00,66.4,40.7,29.79,WSW,248,10.1,10.1,39,0.00,,CLR,0.00,VWS V14.01,2013-03-16 15:04:00,
2013-03-16 11:08:00,66.0,40.4,29.79,West,270,7.4,7.4,39,0.00,,CLR,0.00,VWS V14.01,2013-03-16 15:08:00,
2013-03-16 11:14:00,66.0,40.4,29.79,SW,225,7.2,7.2,39,0.00,,CLR,0.00,VWS V14.01,2013-03-16 15:14:00,
2013-03-16 11:19:00,67.1,41.3,29.76,WSW,248,10.5,10.5,39,0.00,,CLR,0.00,VWS V14.01,2013-03-16 15:19:00,
2013-03-16 11:24:00,66.7,41.0,29.76,WSW,248,12.3,12.3,39,0.00,,CLR,0.00,VWS V14.01,2013-03-16 15:24:00,
2013-03-16 11:29:00,67.1,41.3,29.76,WNW,292,14.8,14.8,39,0.00,,CLR,0.00,VWS V14.01,2013-03-16 15:29:00,
2013-03-16 11:34:00,67.5,41.7,29.79,WSW,248,10.3,10.3,39,0.00,,CLR,0.00,VWS V14.01,2013-03-16 15:34:00,
2013-03-16 11:39:00,67.1,41.3,29.79,West,270,11.0,11.0,39,0.00,,CLR,0.00,VWS V14.01,2013-03-16 15:39:00,
2013-03-16 11:44:00,68.2,42.3,29.79,West,270,11.0,11.0,39,0.00,,CLR,0.00,VWS V14.01,2013-03-16 15:44:00,
2013-03-16 11:49:00,68.0,42.1,29.79,West,270,11.0,11.0,39,0.00,,CLR,0.00,VWS V14.01,2013-03-16 15:49:00,
2013-03-16 11:54:00,67.6,41.8,29.79,West,270,11.0,11.0,39,0.00,,CLR,0.00,VWS V14.01,2013-03-16 15:54:00,
2013-03-16 11:59:00,67.8,42.0,29.79,WSW,248,10.3,10.3,39,0.00,,CLR,0.00,VWS V14.01,2013-03-16 15:59:00,
2013-03-16 12:04:00,67.8,42.0,29.79,SSW,202,10.1,10.1,39,0.00,,CLR,0.00,VWS V14.01,2013-03-16 16:04:00,
2013-03-16 12:09:00,68.2,42.3,29.79,West,270,7.2,7.2,39,0.00,,CLR,0.00,VWS V14.01,2013-03-16 16:09:00,
2013-03-16 12:14:00,68.5,42.6,29.79,SW,225,9.6,9.6,39,0.00,,CLR,0.00,VWS V14.01,2013-03-16 16:14:00,
2013-03-16 12:19:00,69.8,43.1,29.76,WSW,248,5.8,5.8,38,0.00,,CLR,0.00,VWS V14.01,2013-03-16 16:19:00,
2013-03-16 12:25:00,70.3,43.5,29.76,West,270,7.8,7.8,38,0.00,,CLR,0.00,VWS V14.01,2013-03-16 16:25:00,
2013-03-16 12:30:00,70.7,43.9,29.76,West,270,4.9,4.9,38,0.00,,CLR,0.00,VWS V14.01,2013-03-16 16:30:00,
2013-03-16 12:35:00,70.9,44.0,29.76,SSW,202,8.1,8.1,38,0.00,,CLR,0.00,VWS V14.01,2013-03-16 16:35:00,
2013-03-16 12:40:00,71.2,44.4,29.76,SSW,202,17.5,17.5,38,0.00,,CLR,0.00,VWS V14.01,2013-03-16 16:40:00,
2013-03-16 12:45:00,71.4,44.5,29.76,WSW,248,8.5,8.5,38,0.00,,CLR,0.00,VWS V14.01,2013-03-16 16:45:00,
2013-03-16 12:50:00,71.2,44.4,29.74,WSW,248,10.5,10.5,38,0.00,,CLR,0.00,VWS V14.01,2013-03-16 16:50:00,
2013-03-16 12:55:00,72.1,45.2,29.74,WNW,292,9.8,9.8,38,0.00,,CLR,0.00,VWS V14.01,2013-03-16 16:55:00,
2013-03-16 13:00:00,72.0,45.0,29.74,SW,225,13.4,13.4,38,0.00,,CLR,0.00,VWS V14.01,2013-03-16 17:00:00,
2013-03-16 13:05:00,73.0,46.0,29.74,SW,225,12.3,12.3,38,0.00,,CLR,0.00,VWS V14.01,2013-03-16 17:05:00,
2013-03-16 13:10:00,72.3,45.3,29.74,WSW,248,10.3,10.3,38,0.00,,CLR,0.00,VWS V14.01,2013-03-16 17:10:00,
2013-03-16 13:15:00,72.3,45.3,29.74,West,270,12.8,12.8,38,0.00,,CLR,0.00,VWS V14.01,2013-03-16 17:15:00,
2013-03-16 13:20:00,73.0,46.0,29.74,West,270,9.8,9.8,38,0.00,,CLR,0.00,VWS V14.01,2013-03-16 17:20:00,
2013-03-16 13:25:00,73.2,46.1,29.74,WSW,248,10.7,10.7,38,0.00,,CLR,0.00,VWS V14.01,2013-03-16 17:25:00,
2013-03-16 13:30:00,74.1,46.2,29.74,West,270,12.5,12.5,37,0.00,,CLR,0.00,VWS V14.01,2013-03-16 17:30:00,
2013-03-16 13:35:00,73.4,45.6,29.74,WSW,248,8.1,8.1,37,0.00,,CLR,0.00,VWS V14.01,2013-03-16 17:35:00,
2013-03-16 13:41:00,74.7,46.7,29.74,WSW,248,11.4,11.4,37,0.00,,CLR,0.00,VWS V14.01,2013-03-16 17:41:00,
2013-03-16 13:46:00,74.5,46.5,29.74,SSW,202,7.4,7.4,37,0.00,,CLR,0.00,VWS V14.01,2013-03-16 17:46:00,
2013-03-16 13:51:00,75.6,47.5,29.74,WSW,248,4.7,4.7,37,0.00,,CLR,0.00,VWS V14.01,2013-03-16 17:51:00,
2013-03-16 13:56:00,75.9,47.8,29.74,West,270,7.8,7.8,37,0.00,,CLR,0.00,VWS V14.01,2013-03-16 17:56:00,
2013-03-16 14:01:00,75.6,47.5,29.74,West,270,12.8,12.8,37,0.00,,CLR,0.00,VWS V14.01,2013-03-16 18:01:00,
2013-03-16 14:06:00,76.3,48.1,29.74,WSW,248,10.7,10.7,37,0.00,,CLR,0.00,VWS V14.01,2013-03-16 18:06:00,
2013-03-16 14:11:00,76.1,48.0,29.74,WSW,248,8.1,8.1,37,0.00,,CLR,0.00,VWS V14.01,2013-03-16 18:11:00,
2013-03-16 14:16:00,75.6,47.5,29.74,WSW,248,12.5,12.5,37,0.00,,CLR,0.00,VWS V14.01,2013-03-16 18:16:00,
2013-03-16 14:21:00,75.7,47.7,29.71,WSW,248,8.1,8.1,37,0.00,,CLR,0.00,VWS V14.01,2013-03-16 18:21:00,
2013-03-16 14:26:00,76.6,48.4,29.71,WSW,248,11.0,11.0,37,0.00,,CLR,0.00,VWS V14.01,2013-03-16 18:26:00,
2013-03-16 14:31:00,75.6,47.5,29.71,WSW,248,14.3,14.3,37,0.00,,CLR,0.00,VWS V14.01,2013-03-16 18:31:00,
2013-03-16 14:36:00,75.9,47.8,29.71,WSW,248,12.8,12.8,37,0.00,,CLR,0.00,VWS V14.01,2013-03-16 18:36:00,
2013-03-16 14:42:00,75.4,47.3,29.71,West,270,12.3,12.3,37,0.00,,CLR,0.00,VWS V14.01,2013-03-16 18:42:00,
2013-03-16 14:47:00,75.6,47.5,29.71,WSW,248,12.3,12.3,37,0.00,,CLR,0.00,VWS V14.01,2013-03-16 18:47:00,
2013-03-16 14:52:00,75.6,47.5,29.71,SSW,202,10.3,10.3,37,0.00,,CLR,0.00,VWS V14.01,2013-03-16 18:52:00,
2013-03-16 14:57:00,76.5,48.3,29.71,SSW,202,13.9,13.9,37,0.00,,CLR,0.00,VWS V14.01,2013-03-16 18:57:00,
2013-03-16 15:02:00,75.7,47.7,29.71,WNW,292,19.5,19.5,37,0.00,,CLR,0.00,VWS V14.01,2013-03-16 19:02:00,
2013-03-16 15:07:00,76.1,48.0,29.68,SSW,202,14.3,14.3,37,0.00,,CLR,0.00,VWS V14.01,2013-03-16 19:07:00,
2013-03-16 15:12:00,77.2,48.9,29.68,West,270,12.5,12.5,37,0.00,,CLR,0.00,VWS V14.01,2013-03-16 19:12:00,
2013-03-16 15:17:00,76.5,48.3,29.68,WSW,248,12.3,12.3,37,0.00,,CLR,0.00,VWS V14.01,2013-03-16 19:17:00,
2013-03-16 15:22:00,75.9,47.8,29.68,SW,225,9.6,9.6,37,0.00,,CLR,0.00,VWS V14.01,2013-03-16 19:22:00,
2013-03-16 15:27:00,76.3,48.1,29.68,WSW,248,8.7,8.7,37,0.00,,CLR,0.00,VWS V14.01,2013-03-16 19:27:00,
2013-03-16 15:33:00,75.9,47.8,29.68,West,270,12.5,12.5,37,0.00,,CLR,0.00,VWS V14.01,2013-03-16 19:33:00,
2013-03-16 15:38:00,75.9,47.8,29.71,WSW,248,10.1,10.1,37,0.00,,CLR,0.00,VWS V14.01,2013-03-16 19:38:00,
2013-03-16 15:43:00,75.6,47.5,29.71,WSW,248,15.4,15.4,37,0.00,,CLR,0.00,VWS V14.01,2013-03-16 19:43:00,
2013-03-16 15:48:00,76.3,48.1,29.71,WSW,248,10.7,10.7,37,0.00,,CLR,0.00,VWS V14.01,2013-03-16 19:48:00,
2013-03-16 15:53:00,76.6,48.4,29.68,WSW,248,11.0,11.0,37,0.00,,CLR,0.00,VWS V14.01,2013-03-16 19:53:00,
2013-03-16 15:58:00,76.1,48.0,29.68,WSW,248,12.3,12.3,37,0.00,,CLR,0.00,VWS V14.01,2013-03-16 19:58:00,
2013-03-16 16:03:00,76.3,48.1,29.68,WNW,292,14.8,14.8,37,0.00,,CLR,0.00,VWS V14.01,2013-03-16 20:03:00,
2013-03-16 16:08:00,76.6,48.4,29.68,WSW,248,17.5,17.5,37,0.00,,CLR,0.00,VWS V14.01,2013-03-16 20:08:00,
2013-03-16 16:13:00,76.5,48.3,29.68,SSW,202,10.5,10.5,37,0.00,,CLR,0.00,VWS V14.01,2013-03-16 20:13:00,
2013-03-16 16:18:00,76.5,48.3,29.68,WSW,248,12.3,12.3,37,0.00,,CLR,0.00,VWS V14.01,2013-03-16 20:18:00,
2013-03-16 16:23:00,76.5,48.3,29.68,SW,225,15.9,15.9,37,0.00,,CLR,0.00,VWS V14.01,2013-03-16 20:23:00,
2013-03-16 16:28:00,76.6,48.4,29.68,WSW,248,5.6,5.6,37,0.00,,CLR,0.00,VWS V14.01,2013-03-16 20:28:00,
2013-03-16 16:33:00,77.0,48.8,29.68,WSW,248,3.8,3.8,37,0.00,,CLR,0.00,VWS V14.01,2013-03-16 20:33:00,
2013-03-16 16:39:00,76.5,48.3,29.68,SW,225,7.4,7.4,37,0.00,,CLR,0.00,VWS V14.01,2013-03-16 20:39:00,
2013-03-16 16:44:00,76.1,48.0,29.68,WSW,248,8.1,8.1,37,0.00,,CLR,0.00,VWS V14.01,2013-03-16 20:44:00,
2013-03-16 16:49:00,76.5,48.3,29.68,WSW,248,12.8,12.8,37,0.00,,CLR,0.00,VWS V14.01,2013-03-16 20:49:00,
2013-03-16 16:54:00,76.6,48.4,29.68,SW,225,11.0,11.0,37,0.00,,CLR,0.00,VWS V14.01,2013-03-16 20:54:00,
2013-03-16 16:59:00,77.5,49.2,29.68,WSW,248,9.2,9.2,37,0.00,,CLR,0.00,VWS V14.01,2013-03-16 20:59:00,
2013-03-16 17:04:00,76.1,48.0,29.68,WSW,248,13.0,13.0,37,0.00,,CLR,0.00,VWS V14.01,2013-03-16 21:04:00,
2013-03-16 17:09:00,76.6,48.4,29.68,WSW,248,8.7,8.7,37,0.00,,CLR,0.00,VWS V14.01,2013-03-16 21:09:00,
2013-03-16 17:14:00,77.2,48.9,29.68,WSW,248,5.4,5.4,37,0.00,,CLR,0.00,VWS V14.01,2013-03-16 21:14:00,
2013-03-16 17:19:00,76.5,48.3,29.68,WSW,248,8.7,8.7,37,0.00,,CLR,0.00,VWS V14.01,2013-03-16 21:19:00,
2013-03-16 17:24:00,76.3,48.1,29.68,WSW,248,13.2,13.2,37,0.00,,CLR,0.00,VWS V14.01,2013-03-16 21:24:00,
2013-03-16 17:29:00,75.7,47.7,29.68,SW,225,13.0,13.0,37,0.00,,CLR,0.00,VWS V14.01,2013-03-16 21:29:00,
2013-03-16 17:34:00,76.3,48.1,29.68,WSW,248,12.3,12.3,37,0.00,,CLR,0.00,VWS V14.01,2013-03-16 21:34:00,
2013-03-16 17:39:00,76.1,48.0,29.68,WSW,248,11.0,11.0,37,0.00,,CLR,0.00,VWS V14.01,2013-03-16 21:39:00,
2013-03-16 17:44:00,76.3,48.1,29.68,WSW,248,9.8,9.8,37,0.00,,CLR,0.00,VWS V14.01,2013-03-16 21:44:00,
2013-03-16 17:49:00,76.3,48.1,29.68,SW,225,12.5,12.5,37,0.00,,CLR,0.00,VWS V14.01,2013-03-16 21:49:00,
2013-03-16 17:54:00,76.3,48.1,29.68,West,270,15.7,15.7,37,0.00,,CLR,0.00,VWS V14.01,2013-03-16 21:54:00,
2013-03-16 18:00:00,76.3,48.1,29.68,West,270,10.7,10.7,37,0.00,,CLR,0.00,VWS V14.01,2013-03-16 22:00:00,
2013-03-16 18:05:00,76.3,48.1,29.68,WSW,248,5.8,5.8,37,0.00,,CLR,0.00,VWS V14.01,2013-03-16 22:05:00,
2013-03-16 18:10:00,76.1,48.0,29.68,West,270,13.2,13.2,37,0.00,,CLR,0.00,VWS V14.01,2013-03-16 22:10:00,
2013-03-16 18:15:00,75.9,47.8,29.68,SW,225,10.7,10.7,37,0.00,,CLR,0.00,VWS V14.01,2013-03-16 22:15:00,
2013-03-16 18:20:00,75.7,47.7,29.68,WSW,248,7.2,7.2,37,0.00,,CLR,0.00,VWS V14.01,2013-03-16 22:20:00,
2013-03-16 18:25:00,75.6,47.5,29.68,SW,225,10.7,10.7,37,0.00,,CLR,0.00,VWS V14.01,2013-03-16 22:25:00,
2013-03-16 18:30:00,75.4,47.3,29.68,NW,315,7.4,7.4,37,0.00,,CLR,0.00,VWS V14.01,2013-03-16 22:30:00,
2013-03-16 18:35:00,75.2,47.2,29.68,WSW,248,13.9,13.9,37,0.00,,CLR,0.00,VWS V14.01,2013-03-16 22:35:00,
2013-03-16 18:40:00,74.8,46.8,29.68,SSW,202,17.7,17.7,37,0.00,,CLR,0.00,VWS V14.01,2013-03-16 22:40:00,
2013-03-16 18:45:00,74.7,46.7,29.68,WSW,248,10.5,10.5,37,0.00,,CLR,0.00,VWS V14.01,2013-03-16 22:45:00,
2013-03-16 18:50:00,74.3,46.4,29.68,SW,225,4.9,4.9,37,0.00,,CLR,0.00,VWS V14.01,2013-03-16 22:50:00,
2013-03-16 18:55:00,74.3,46.4,29.68,WSW,248,7.4,7.4,37,0.00,,CLR,0.00,VWS V14.01,2013-03-16 22:55:00,
2013-03-16 19:00:00,74.5,46.5,29.68,WSW,248,12.8,12.8,37,0.00,,CLR,0.00,VWS V14.01,2013-03-16 23:00:00,
2013-03-16 19:05:00,73.9,46.0,29.68,WSW,248,13.0,13.0,37,0.04,,CLR,0.04,VWS V14.01,2013-03-16 23:05:00,
2013-03-16 19:10:00,73.6,45.7,29.68,WSW,248,12.8,12.8,37,0.04,,CLR,0.04,VWS V14.01,2013-03-16 23:10:00,
2013-03-16 19:16:00,73.9,46.0,29.68,West,270,10.5,10.5,37,0.04,,CLR,0.04,VWS V14.01,2013-03-16 23:16:00,
2013-03-16 19:21:00,73.8,45.9,29.71,WSW,248,5.8,5.8,37,0.04,,CLR,0.04,VWS V14.01,2013-03-16 23:21:00,
2013-03-16 19:26:00,73.0,46.0,29.71,SSW,202,5.4,5.4,38,0.04,,CLR,0.04,VWS V14.01,2013-03-16 23:26:00,
2013-03-16 19:31:00,72.9,45.8,29.71,SW,225,6.5,6.5,38,0.04,,CLR,0.04,VWS V14.01,2013-03-16 23:31:00,
2013-03-16 19:36:00,73.4,45.6,29.71,WSW,248,12.5,12.5,37,0.04,,CLR,0.04,VWS V14.01,2013-03-16 23:36:00,
2013-03-16 19:41:00,72.3,45.3,29.71,WSW,248,8.7,8.7,38,0.04,,CLR,0.04,VWS V14.01,2013-03-16 23:41:00,
2013-03-16 19:46:00,72.5,45.5,29.71,WSW,248,7.2,7.2,38,0.04,,CLR,0.04,VWS V14.01,2013-03-16 23:46:00,
2013-03-16 19:51:00,72.9,45.8,29.71,SSW,202,8.5,8.5,38,0.04,,CLR,0.04,VWS V14.01,2013-03-16 23:51:00,
2013-03-16 19:56:00,71.8,44.8,29.71,WNW,292,5.4,5.4,38,0.04,,CLR,0.04,VWS V14.01,2013-03-16 23:56:00,
2013-03-16 20:01:00,71.8,44.8,29.71,WSW,248,10.7,10.7,38,0.04,,CLR,0.04,VWS V14.01,2013-03-17 00:01:00,
2013-03-16 20:06:00,71.4,44.5,29.71,WSW,248,8.5,8.5,38,0.00,,CLR,0.04,VWS V14.01,2013-03-17 00:06:00,
2013-03-16 20:11:00,71.4,44.5,29.71,West,270,7.8,7.8,38,0.00,,CLR,0.04,VWS V14.01,2013-03-17 00:11:00,
2013-03-16 20:16:00,71.1,44.2,29.71,WSW,248,8.1,8.1,38,0.00,,CLR,0.04,VWS V14.01,2013-03-17 00:16:00,
2013-03-16 20:21:00,71.6,44.7,29.74,SW,225,8.7,8.7,38,0.00,,CLR,0.04,VWS V14.01,2013-03-17 00:21:00,
2013-03-16 20:27:00,71.1,44.2,29.74,WSW,248,9.8,9.8,38,0.00,,CLR,0.04,VWS V14.01,2013-03-17 00:27:00,
2013-03-16 20:32:00,70.7,43.9,29.74,WSW,248,6.3,6.3,38,0.00,,CLR,0.04,VWS V14.01,2013-03-17 00:32:00,
2013-03-16 20:37:00,70.5,43.7,29.74,WSW,248,6.5,6.5,38,0.00,,CLR,0.04,VWS V14.01,2013-03-17 00:37:00,
2013-03-16 20:42:00,71.1,44.2,29.74,SSW,202,8.7,8.7,38,0.00,,CLR,0.04,VWS V14.01,2013-03-17 00:42:00,
2013-03-16 20:47:00,69.8,43.1,29.74,West,270,4.3,4.3,38,0.00,,CLR,0.04,VWS V14.01,2013-03-17 00:47:00,
2013-03-16 20:52:00,70.2,43.4,29.74,WSW,248,4.9,4.9,38,0.00,,CLR,0.00,VWS V14.01,2013-03-17 00:52:00,
2013-03-16 20:57:00,70.3,43.5,29.74,SW,225,10.1,10.1,38,0.00,,CLR,0.00,VWS V14.01,2013-03-17 00:57:00,
2013-03-16 21:02:00,70.3,43.5,29.74,WSW,248,5.6,5.6,38,0.00,,CLR,0.00,VWS V14.01,2013-03-17 01:02:00,
2013-03-16 21:07:00,69.8,43.1,29.74,WSW,248,6.5,6.5,38,0.00,,CLR,0.00,VWS V14.01,2013-03-17 01:07:00,
2013-03-16 21:12:00,69.6,43.6,29.74,WSW,248,5.6,5.6,39,0.00,,CLR,0.00,VWS V14.01,2013-03-17 01:12:00,
2013-03-16 21:17:00,70.0,43.2,29.74,SW,225,5.4,5.4,38,0.00,,CLR,0.00,VWS V14.01,2013-03-17 01:17:00,
2013-03-16 21:22:00,69.3,43.3,29.71,SW,225,4.0,4.0,39,0.00,,CLR,0.00,VWS V14.01,2013-03-17 01:22:00,
2013-03-16 21:27:00,69.3,43.3,29.71,WSW,248,6.0,6.0,39,0.00,,CLR,0.00,VWS V14.01,2013-03-17 01:27:00,
2013-03-16 21:32:00,69.1,43.1,29.71,West,270,5.4,5.4,39,0.00,,CLR,0.00,VWS V14.01,2013-03-17 01:32:00,
2013-03-16 21:37:00,69.4,43.4,29.74,WSW,248,6.3,6.3,39,0.00,,CLR,0.00,VWS V14.01,2013-03-17 01:37:00,
2013-03-16 21:42:00,68.7,42.8,29.74,SSW,202,10.1,10.1,39,0.00,,CLR,0.00,VWS V14.01,2013-03-17 01:42:00,
2013-03-16 21:47:00,69.1,43.1,29.74,WSW,248,4.9,4.9,39,0.00,,CLR,0.00,VWS V14.01,2013-03-17 01:47:00,
2013-03-16 21:52:00,69.3,43.3,29.76,WSW,248,10.3,10.3,39,0.00,,CLR,0.00,VWS V14.01,2013-03-17 01:52:00,
2013-03-16 21:58:00,68.5,42.6,29.76,WSW,248,8.7,8.7,39,0.00,,CLR,0.00,VWS V14.01,2013-03-17 01:58:00,
2013-03-16 22:03:00,68.7,42.8,29.76,WSW,248,6.5,6.5,39,0.00,,CLR,0.00,VWS V14.01,2013-03-17 02:03:00,
2013-03-16 22:08:00,68.2,42.3,29.76,West,270,7.8,7.8,39,0.00,,CLR,0.00,VWS V14.01,2013-03-17 02:08:00,
2013-03-16 22:13:00,68.0,42.1,29.76,West,270,3.1,3.1,39,0.00,,CLR,0.00,VWS V14.01,2013-03-17 02:13:00,
2013-03-16 22:18:00,67.6,41.8,29.76,WSW,248,5.6,5.6,39,0.00,,CLR,0.00,VWS V14.01,2013-03-17 02:18:00,
2013-03-16 22:23:00,68.0,42.1,29.79,SW,225,7.4,7.4,39,0.00,,CLR,0.00,VWS V14.01,2013-03-17 02:23:00,
2013-03-16 22:27:00,67.3,41.5,29.79,WSW,248,5.8,5.8,39,0.00,,CLR,0.00,VWS V14.01,2013-03-17 02:27:00,
2013-03-16 22:33:00,67.8,42.0,29.79,WSW,248,7.8,7.8,39,0.00,,CLR,0.00,VWS V14.01,2013-03-17 02:33:00,
2013-03-16 22:38:00,67.6,41.8,29.79,WSW,248,6.0,6.0,39,0.00,,CLR,0.00,VWS V14.01,2013-03-17 02:38:00,
2013-03-16 22:43:00,67.5,41.7,29.79,West,270,5.8,5.8,39,0.00,,CLR,0.00,VWS V14.01,2013-03-17 02:43:00,
2013-03-16 22:48:00,67.3,41.5,29.79,West,270,8.1,8.1,39,0.00,,CLR,0.00,VWS V14.01,2013-03-17 02:48:00,
2013-03-16 22:53:00,68.2,42.3,29.79,WSW,248,8.1,8.1,39,0.00,,CLR,0.00,VWS V14.01,2013-03-17 02:53:00,
2013-03-16 22:57:00,65.5,39.9,29.79,WSW,248,3.6,3.6,39,0.00,,CLR,0.00,VWS V14.01,2013-03-17 02:57:00,
2013-03-16 22:58:00,67.6,41.8,29.79,WSW,248,6.0,6.0,39,0.00,,CLR,0.00,VWS V14.01,2013-03-17 02:58:00,
2013-03-16 22:59:00,66.0,40.4,29.79,WSW,248,3.6,3.6,39,0.00,,CLR,0.00,VWS V14.01,2013-03-17 02:59:00,
2013-03-16 23:00:00,65.8,40.2,29.79,WSW,248,5.6,5.6,39,0.00,,CLR,0.00,VWS V14.01,2013-03-17 03:00:00,
2013-03-16 23:01:00,65.8,40.2,29.79,SW,225,3.6,3.6,39,0.00,,CLR,0.00,VWS V14.01,2013-03-17 03:01:00,
2013-03-16 23:02:00,65.7,40.0,29.79,WSW,248,3.1,3.1,39,0.00,,CLR,0.00,VWS V14.01,2013-03-17 03:02:00,
2013-03-16 23:03:00,67.6,41.8,29.79,WSW,248,6.0,6.0,39,0.00,,CLR,0.00,VWS V14.01,2013-03-17 03:03:00,
2013-03-16 23:04:00,65.5,39.9,29.79,WSW,248,3.1,3.1,39,0.00,,CLR,0.00,VWS V14.01,2013-03-17 03:04:00,
2013-03-16 23:05:00,65.3,39.7,29.79,WSW,248,5.6,5.6,39,0.00,,CLR,0.00,VWS V14.01,2013-03-17 03:05:00,
2013-03-16 23:06:00,65.8,40.2,29.79,West,270,7.4,7.4,39,0.00,,CLR,0.00,VWS V14.01,2013-03-17 03:06:00,
2013-03-16 23:07:00,66.0,40.4,29.79,SW,225,5.4,5.4,39,0.00,,CLR,0.00,VWS V14.01,2013-03-17 03:07:00,
2013-03-16 23:08:00,67.6,41.8,29.79,West,270,5.8,5.8,39,0.00,,CLR,0.00,VWS V14.01,2013-03-17 03:08:00,
2013-03-16 23:09:00,65.7,40.0,29.79,WSW,248,4.0,4.0,39,0.00,,CLR,0.00,VWS V14.01,2013-03-17 03:09:00,
2013-03-16 23:11:00,65.1,39.6,29.79,WSW,248,8.1,8.1,39,0.00,,CLR,0.00,VWS V14.01,2013-03-17 03:11:00,
2013-03-16 23:12:00,66.0,40.4,29.79,WSW,248,3.6,3.6,39,0.00,,CLR,0.00,VWS V14.01,2013-03-17 03:12:00,
2013-03-16 23:13:00,66.7,41.0,29.79,WSW,248,6.3,6.3,39,0.00,,CLR,0.00,VWS V14.01,2013-03-17 03:13:00,
2013-03-16 23:14:00,65.7,40.0,29.79,West,270,8.5,8.5,39,0.00,,CLR,0.00,VWS V14.01,2013-03-17 03:14:00,
2013-03-16 23:15:00,66.0,40.4,29.79,SW,225,3.6,3.6,39,0.00,,CLR,0.00,VWS V14.01,2013-03-17 03:15:00,
2013-03-16 23:18:00,66.4,40.7,29.79,WSW,248,3.8,3.8,39,0.00,,CLR,0.00,VWS V14.01,2013-03-17 03:18:00,
2013-03-16 23:23:00,65.8,40.2,29.79,WSW,248,4.9,4.9,39,0.00,,CLR,0.00,VWS V14.01,2013-03-17 03:23:00,
2013-03-16 23:28:00,66.6,40.9,29.79,WSW,248,4.3,4.3,39,0.00,,CLR,0.00,VWS V14.01,2013-03-17 03:28:00,
2013-03-16 23:33:00,65.8,40.2,29.79,WSW,248,6.0,6.0,39,0.00,,CLR,0.00,VWS V14.01,2013-03-17 03:33:00,
2013-03-16 23:38:00,66.4,40.7,29.79,West,270,3.4,3.4,39,0.00,,CLR,0.00,VWS V14.01,2013-03-17 03:38:00,
2013-03-16 23:43:00,66.2,40.5,29.79,WSW,248,5.6,5.6,39,0.00,,CLR,0.00,VWS V14.01,2013-03-17 03:43:00,
2013-03-16 23:48:00,65.7,40.0,29.79,WSW,248,3.6,3.6,39,0.00,,CLR,0.00,VWS V14.01,2013-03-17 03:48:00,
2013-03-16 23:53:00,65.8,40.2,29.79,WSW,248,5.6,5.6,39,0.00,,CLR,0.00,VWS V14.01,2013-03-17 03:53:00,
2013-03-16 23:58:00,65.7,40.0,29.79,WSW,248,4.0,4.0,39,0.00,,CLR,0.00,VWS V14.01,2013-03-17 03:58:00,